Time;durP1;ratioP1;P1;durP2;ratioP2;P2;SDS_P1;SDS_P2;PMS_P1;PMS_P2;Temp;Humidity;BMP_temperature;BMP_pressure;BME280_temperature;BME280_humidity;BME280_pressure;Samples;Min_cycle;Max_cycle;Signal;HPM_P1;HPM_P2
2023/03/02 00:01:49;;;;;;;8.75;7.90;;;2.50;99.90;;;;;;4978958;28;20078;-62
2023/03/02 00:04:25;;;;;;;9.30;8.07;;;2.50;99.90;;;;;;4966985;28;20054;-62
2023/03/02 00:06:54;;;;;;;10.15;8.60;;;2.50;99.90;;;;;;4968127;28;20047;-62
2023/03/02 00:09:20;;;;;;;12.32;8.60;;;2.50;99.90;;;;;;4967317;28;20046;-62
2023/03/02 00:11:46;;;;;;;11.70;9.52;;;2.60;99.90;;;;;;4958608;28;20065;-62
2023/03/02 00:14:11;;;;;;;11.40;9.32;;;2.60;99.90;;;;;;4955274;28;20394;-62
2023/03/02 00:16:39;;;;;;;12.68;9.48;;;2.60;99.90;;;;;;4981113;28;20093;-62
2023/03/02 00:19:04;;;;;;;11.73;9.23;;;2.60;99.90;;;;;;4956292;28;20430;-62
2023/03/02 00:21:30;;;;;;;12.43;9.40;;;2.70;99.90;;;;;;4951450;28;20121;-62
2023/03/02 00:23:56;;;;;;;10.50;8.45;;;2.50;99.90;;;;;;4976080;28;20205;-62
2023/03/02 00:26:22;;;;;;;9.95;8.48;;;2.60;99.90;;;;;;4977204;28;20409;-62
2023/03/02 00:28:47;;;;;;;9.80;8.27;;;2.50;99.90;;;;;;4981871;28;20042;-62
2023/03/02 00:31:13;;;;;;;10.73;9.65;;;2.50;99.90;;;;;;4976219;28;20058;-62
2023/03/02 00:33:39;;;;;;;11.80;9.35;;;2.40;99.90;;;;;;4960214;28;20471;-62
2023/03/02 00:36:05;;;;;;;10.27;9.27;;;2.40;99.90;;;;;;4977703;28;20039;-62
2023/03/02 00:38:31;;;;;;;9.95;8.93;;;2.40;99.90;;;;;;4976844;28;20141;-62
2023/03/02 00:40:58;;;;;;;15.00;9.25;;;2.40;99.90;;;;;;4975239;28;20146;-62
2023/03/02 00:43:26;;;;;;;10.82;9.20;;;2.30;99.90;;;;;;4982972;28;20038;-62
2023/03/02 00:45:54;;;;;;;10.25;8.95;;;2.30;99.90;;;;;;4984853;28;20050;-62
2023/03/02 00:48:20;;;;;;;11.93;9.25;;;2.30;99.90;;;;;;4978747;28;20050;-62
2023/03/02 00:50:45;;;;;;;13.75;9.98;;;2.30;99.90;;;;;;4972314;28;20098;-62
2023/03/02 00:53:11;;;;;;;12.10;9.65;;;2.40;99.90;;;;;;4978087;28;20089;-62
2023/03/02 00:55:37;;;;;;;11.25;10.10;;;2.40;99.90;;;;;;4956615;28;20042;-62
2023/03/02 00:58:03;;;;;;;12.57;10.55;;;2.40;99.90;;;;;;4980244;28;20055;-62
2023/03/02 01:00:30;;;;;;;12.13;10.68;;;2.40;99.90;;;;;;4974827;28;20504;-62
2023/03/02 01:02:57;;;;;;;14.07;12.00;;;2.40;99.90;;;;;;4967968;28;20057;-62
2023/03/02 01:05:23;;;;;;;14.57;11.80;;;2.30;99.90;;;;;;4974986;28;20049;-62
2023/03/02 01:07:49;;;;;;;15.30;12.02;;;2.40;99.90;;;;;;4969661;28;20038;-62
2023/03/02 01:10:15;;;;;;;13.30;11.82;;;2.30;99.90;;;;;;4978006;28;20042;-62
2023/03/02 01:12:41;;;;;;;13.00;11.13;;;2.30;99.90;;;;;;4935695;28;20039;-62
2023/03/02 01:15:08;;;;;;;15.32;11.98;;;2.30;99.90;;;;;;4970501;28;20046;-62
2023/03/02 01:17:34;;;;;;;15.50;12.82;;;2.30;99.90;;;;;;4963403;28;20065;-62
2023/03/02 01:19:59;;;;;;;13.93;11.55;;;2.30;99.90;;;;;;4983151;28;20494;-62
2023/03/02 01:22:25;;;;;;;16.40;12.43;;;2.20;99.90;;;;;;4969183;28;20074;-62
2023/03/02 01:24:52;;;;;;;17.83;13.10;;;2.30;99.90;;;;;;4951176;28;20489;-62
2023/03/02 01:27:18;;;;;;;16.02;13.55;;;2.30;99.90;;;;;;4975433;28;20097;-62
2023/03/02 01:29:44;;;;;;;18.65;14.02;;;2.30;99.90;;;;;;4971921;28;20042;-62
2023/03/02 01:32:10;;;;;;;17.02;13.65;;;2.20;99.90;;;;;;4969542;28;20062;-62
2023/03/02 01:34:36;;;;;;;19.20;14.00;;;2.10;99.90;;;;;;4967660;28;20043;-62
2023/03/02 01:37:01;;;;;;;18.42;14.43;;;2.30;99.90;;;;;;4969836;28;20051;-62
2023/03/02 01:39:27;;;;;;;18.02;15.02;;;2.20;99.90;;;;;;4974612;28;20109;-62
2023/03/02 01:41:53;;;;;;;18.38;13.30;;;2.30;99.90;;;;;;4971014;28;20034;-62
2023/03/02 01:44:39;;;;;;;19.38;14.85;;;2.30;99.90;;;;;;4968813;28;20054;-62
2023/03/02 01:47:12;;;;;;;21.67;14.75;;;2.30;99.90;;;;;;4967513;28;20034;-62
2023/03/02 01:49:42;;;;;;;22.70;15.48;;;2.40;99.90;;;;;;4970475;28;20069;-62
2023/03/02 01:52:10;;;;;;;22.33;15.82;;;2.30;99.90;;;;;;4968086;28;20409;-62
2023/03/02 01:54:37;;;;;;;21.10;14.52;;;2.30;99.90;;;;;;4969349;28;20087;-62
2023/03/02 01:57:04;;;;;;;22.63;15.88;;;2.30;99.90;;;;;;4968844;28;20051;-62
2023/03/02 01:59:31;;;;;;;21.77;16.20;;;2.30;99.90;;;;;;4967443;28;20035;-62
2023/03/02 02:02:02;;;;;;;23.75;16.00;;;2.30;99.90;;;;;;4970704;28;20050;-62
2023/03/02 02:04:29;;;;;;;24.42;15.98;;;2.30;99.90;;;;;;4967175;28;20050;-62
2023/03/02 02:07:03;;;;;;;23.48;17.00;;;2.20;99.90;;;;;;4951643;28;20051;-62
2023/03/02 02:09:33;;;;;;;28.58;19.10;;;2.30;99.90;;;;;;4968717;28;20054;-62
2023/03/02 02:11:59;;;;;;;31.40;20.90;;;2.30;99.90;;;;;;4980467;28;20046;-62
2023/03/02 02:14:25;;;;;;;29.38;18.92;;;2.30;99.90;;;;;;4969681;28;20050;-62
2023/03/02 02:16:51;;;;;;;30.63;18.77;;;2.20;99.90;;;;;;4967760;28;20421;-62
2023/03/02 02:19:30;;;;;;;34.15;20.77;;;2.20;99.90;;;;;;4968379;28;20501;-62
2023/03/02 02:21:55;;;;;;;40.72;23.38;;;2.20;99.90;;;;;;4968456;28;20047;-62
2023/03/02 02:24:26;;;;;;;42.05;22.25;;;2.10;99.90;;;;;;4984105;28;20891;-62
2023/03/02 02:26:54;;;;;;;42.92;23.52;;;2.10;99.90;;;;;;4958573;28;20425;-62
2023/03/02 02:29:26;;;;;;;40.35;23.75;;;2.10;99.90;;;;;;4972059;28;20129;-62
2023/03/02 02:32:27;;;;;;;47.60;25.45;;;2.10;99.90;;;;;;4970531;28;20055;-62
2023/03/02 02:35:09;;;;;;;56.70;28.00;;;2.10;99.90;;;;;;4967893;28;20039;-62
2023/03/02 02:37:38;;;;;;;62.30;28.27;;;2.10;99.90;;;;;;4968129;28;20046;-62
2023/03/02 02:40:11;;;;;;;57.05;28.52;;;2.10;99.90;;;;;;4969797;28;20125;-62
2023/03/02 02:42:42;;;;;;;61.05;30.85;;;2.00;99.90;;;;;;4974133;28;20170;-62
2023/03/02 02:45:21;;;;;;;58.58;29.70;;;2.10;99.90;;;;;;4968619;28;20047;-62
2023/03/02 02:47:48;;;;;;;72.05;31.60;;;2.10;99.90;;;;;;4966347;28;20113;-62
2023/03/02 02:50:24;;;;;;;62.97;31.30;;;2.10;99.90;;;;;;4968306;28;20058;-62
2023/03/02 02:53:01;;;;;;;70.70;32.85;;;2.00;99.90;;;;;;4968250;28;20046;-62
2023/03/02 02:55:29;;;;;;;76.43;34.63;;;2.00;99.90;;;;;;4966207;28;20051;-62
2023/03/02 02:57:58;;;;;;;68.75;31.77;;;2.00;99.90;;;;;;4968081;28;20081;-62
2023/03/02 03:00:24;;;;;;;67.95;33.13;;;2.00;99.90;;;;;;4965829;28;20035;-62
2023/03/02 03:03:02;;;;;;;65.38;33.17;;;1.90;99.90;;;;;;4978741;28;20100;-62
2023/03/02 03:05:28;;;;;;;66.78;32.20;;;1.90;99.90;;;;;;4967392;28;20047;-62
2023/03/02 03:08:06;;;;;;;61.90;28.92;;;1.90;99.90;;;;;;4968237;28;20086;-62
2023/03/02 03:10:38;;;;;;;59.90;28.40;;;1.90;99.90;;;;;;4971830;28;20038;-62
2023/03/02 03:13:07;;;;;;;55.42;27.77;;;1.80;99.90;;;;;;4975391;28;20054;-62
2023/03/02 03:15:33;;;;;;;58.83;28.25;;;1.80;99.90;;;;;;4966924;28;20047;-62
2023/03/02 03:17:59;;;;;;;65.50;30.00;;;1.80;99.90;;;;;;4970281;28;20050;-62
2023/03/02 03:20:26;;;;;;;59.13;27.27;;;1.80;99.90;;;;;;4969350;28;20124;-62
2023/03/02 03:22:58;;;;;;;53.78;26.05;;;1.80;99.90;;;;;;4968854;28;20042;-62
2023/03/02 03:25:27;;;;;;;55.22;26.63;;;1.80;99.90;;;;;;4967602;28;20069;-62
2023/03/02 03:27:53;;;;;;;76.82;26.92;;;1.70;99.90;;;;;;4969639;28;20173;-62
2023/03/02 03:30:19;;;;;;;53.78;26.17;;;1.60;99.90;;;;;;4965870;28;20083;-62
2023/03/02 03:32:45;;;;;;;47.67;24.35;;;1.60;99.90;;;;;;4968720;28;20039;-62
2023/03/02 03:35:11;;;;;;;65.65;25.05;;;1.60;99.90;;;;;;4951725;28;20045;-62
2023/03/02 03:37:40;;;;;;;37.88;20.30;;;1.60;99.90;;;;;;4970459;28;20053;-62
2023/03/02 03:40:08;;;;;;;38.13;20.77;;;1.70;99.90;;;;;;4975691;28;20046;-62
2023/03/02 03:42:35;;;;;;;48.70;20.95;;;1.60;99.90;;;;;;4977871;28;20565;-62
2023/03/02 03:45:01;;;;;;;37.20;19.92;;;1.60;99.90;;;;;;4972439;28;20051;-68
2023/03/02 03:47:27;;;;;;;31.90;18.55;;;1.60;99.90;;;;;;4967768;28;20057;-62
2023/03/02 03:49:53;;;;;;;29.45;16.80;;;1.70;99.90;;;;;;4969932;28;20055;-62
2023/03/02 03:52:29;;;;;;;32.40;19.17;;;1.60;99.90;;;;;;4949986;28;20839;-62
2023/03/02 03:55:01;;;;;;;30.58;17.55;;;1.60;99.90;;;;;;4971074;28;20050;-62
2023/03/02 03:57:28;;;;;;;32.25;19.23;;;1.60;99.90;;;;;;4974564;28;20568;-62
2023/03/02 03:59:54;;;;;;;32.35;19.52;;;1.60;99.90;;;;;;4981438;28;20110;-62
2023/03/02 04:02:20;;;;;;;44.28;18.02;;;1.60;99.90;;;;;;4978145;28;20043;-62
2023/03/02 04:04:46;;;;;;;28.40;18.00;;;1.60;99.90;;;;;;4952098;28;20050;-62
2023/03/02 04:07:13;;;;;;;29.70;18.92;;;1.60;99.90;;;;;;4984958;28;20038;-62
2023/03/02 04:09:38;;;;;;;27.92;18.40;;;1.70;99.90;;;;;;4976451;28;20050;-62
2023/03/02 04:12:05;;;;;;;37.17;19.35;;;1.60;99.90;;;;;;4979791;28;20050;-62
2023/03/02 04:14:31;;;;;;;47.80;19.17;;;1.60;99.90;;;;;;4952191;28;20105;-62
2023/03/02 04:16:57;;;;;;;60.65;21.20;;;1.60;99.90;;;;;;4976168;28;20046;-62
2023/03/02 04:19:23;;;;;;;32.35;19.48;;;1.60;99.90;;;;;;4979171;28;20034;-62
2023/03/02 04:21:51;;;;;;;43.00;19.70;;;1.60;99.90;;;;;;4969640;28;20054;-62
2023/03/02 04:24:19;;;;;;;34.05;19.13;;;1.60;99.90;;;;;;4955697;28;20394;-62
2023/03/02 04:26:46;;;;;;;37.83;19.13;;;1.60;99.90;;;;;;4969179;28;20054;-62
2023/03/02 04:29:13;;;;;;;32.13;20.17;;;1.60;99.90;;;;;;4953599;28;20453;-62
2023/03/02 04:31:39;;;;;;;32.22;19.35;;;1.60;99.90;;;;;;4970046;28;20057;-62
2023/03/02 04:34:06;;;;;;;37.67;19.67;;;1.60;99.90;;;;;;4970906;28;20160;-62
2023/03/02 04:36:34;;;;;;;34.00;19.50;;;1.60;99.90;;;;;;4970492;28;20034;-62
2023/03/02 04:39:00;;;;;;;43.72;20.55;;;1.60;99.90;;;;;;4969934;28;20058;-62
2023/03/02 04:41:26;;;;;;;34.50;19.95;;;1.60;99.90;;;;;;4970886;28;20066;-62
2023/03/02 04:43:52;;;;;;;96.78;19.80;;;1.70;99.90;;;;;;4959966;28;20089;-62
2023/03/02 04:46:21;;;;;;;39.40;20.20;;;1.70;99.90;;;;;;4958228;28;20061;-62
2023/03/02 04:48:47;;;;;;;45.38;19.88;;;1.70;99.90;;;;;;4976424;28;20049;-62
2023/03/02 04:51:27;;;;;;;74.88;19.00;;;1.70;99.90;;;;;;4970289;28;20046;-62
2023/03/02 04:53:55;;;;;;;65.38;17.95;;;1.70;99.90;;;;;;4969949;28;20071;-62
2023/03/02 04:56:21;;;;;;;164.05;22.45;;;1.70;99.90;;;;;;4969594;28;20054;-62
2023/03/02 04:58:47;;;;;;;135.20;19.33;;;1.70;99.90;;;;;;4972474;28;20042;-62
2023/03/02 05:01:15;;;;;;;70.40;18.77;;;1.60;99.90;;;;;;4969009;28;20055;-62
2023/03/02 05:03:41;;;;;;;135.85;19.70;;;1.60;99.90;;;;;;4970081;28;20450;-62
2023/03/02 05:06:07;;;;;;;232.65;14.98;;;1.60;99.90;;;;;;4968440;28;20051;-62
2023/03/02 05:08:33;;;;;;;431.13;18.92;;;1.60;99.90;;;;;;4971354;28;20136;-62
2023/03/02 05:11:00;;;;;;;545.15;24.05;;;1.40;99.90;;;;;;4968822;28;20066;-62
2023/03/02 05:13:27;;;;;;;545.33;25.42;;;1.40;99.90;;;;;;4969631;28;20051;-62
2023/03/02 05:15:53;;;;;;;267.23;14.52;;;1.30;99.90;;;;;;4969506;28;20049;-62
2023/03/02 05:18:19;;;;;;;213.95;14.50;;;1.20;99.90;;;;;;4967363;28;20046;-63
2023/03/02 05:20:45;;;;;;;389.92;20.00;;;1.10;99.90;;;;;;4969459;28;20046;-62
2023/03/02 05:23:22;;;;;;;368.92;19.65;;;0.90;99.90;;;;;;4968597;28;20047;-62
2023/03/02 05:25:53;;;;;;;226.55;15.90;;;0.90;99.90;;;;;;4969460;28;20470;-62
2023/03/02 05:28:20;;;;;;;418.50;18.85;;;0.80;99.90;;;;;;4969229;28;20043;-62
2023/03/02 05:30:47;;;;;;;331.17;18.92;;;0.90;99.90;;;;;;4969880;28;20113;-62
2023/03/02 05:33:13;;;;;;;253.10;17.58;;;0.90;99.90;;;;;;4951989;28;20117;-62
2023/03/02 05:35:39;;;;;;;287.73;17.15;;;0.80;99.90;;;;;;4934652;28;20071;-62
2023/03/02 05:38:05;;;;;;;393.88;20.92;;;0.80;99.90;;;;;;4970038;28;20171;-62
2023/03/02 05:40:31;;;;;;;221.70;16.63;;;0.80;99.90;;;;;;4968981;28;20107;-62
2023/03/02 05:42:57;;;;;;;95.93;14.45;;;0.80;99.90;;;;;;4969199;28;20478;-63
2023/03/02 05:45:26;;;;;;;312.55;19.23;;;0.80;99.90;;;;;;4968062;28;20046;-62
2023/03/02 05:47:52;;;;;;;252.68;16.83;;;0.80;99.90;;;;;;4968664;28;20137;-62
2023/03/02 05:50:18;;;;;;;363.83;18.08;;;0.80;99.90;;;;;;4970025;28;20473;-62
2023/03/02 05:52:45;;;;;;;214.23;17.15;;;0.80;99.90;;;;;;4946028;28;20054;-62
2023/03/02 05:55:12;;;;;;;257.67;16.35;;;0.90;99.90;;;;;;4972699;28;20051;-62
2023/03/02 05:57:38;;;;;;;188.88;15.55;;;1.00;99.90;;;;;;4967794;28;20055;-62
2023/03/02 06:00:05;;;;;;;329.52;18.20;;;0.90;99.90;;;;;;4969157;28;20085;-62
2023/03/02 06:02:31;;;;;;;244.90;17.65;;;0.90;99.90;;;;;;4963895;28;20035;-62
2023/03/02 06:04:57;;;;;;;157.68;15.75;;;0.90;99.90;;;;;;4968551;28;20075;-62
2023/03/02 06:07:23;;;;;;;155.52;17.13;;;0.90;99.90;;;;;;4969039;28;20187;-62
2023/03/02 06:09:49;;;;;;;102.32;17.48;;;0.90;99.90;;;;;;4967756;28;20046;-62
2023/03/02 06:12:16;;;;;;;333.35;20.95;;;1.00;99.90;;;;;;4970324;28;20433;-62
2023/03/02 06:14:43;;;;;;;232.88;18.63;;;1.00;99.90;;;;;;4967612;28;20429;-62
2023/03/02 06:17:09;;;;;;;427.75;22.33;;;1.00;99.90;;;;;;4943922;28;20089;-62
2023/03/02 06:19:35;;;;;;;273.63;19.67;;;1.00;99.90;;;;;;4967239;28;20520;-62
2023/03/02 06:22:01;;;;;;;137.07;18.02;;;1.00;99.90;;;;;;4970890;28;20050;-62
2023/03/02 06:24:27;;;;;;;175.27;19.02;;;1.00;99.90;;;;;;4950675;28;20038;-62
2023/03/02 06:26:53;;;;;;;152.85;16.77;;;1.00;99.90;;;;;;4974237;28;20057;-62
2023/03/02 06:29:20;;;;;;;164.80;18.77;;;1.10;99.90;;;;;;4968417;28;20054;-62
2023/03/02 06:31:45;;;;;;;229.27;19.20;;;1.00;99.90;;;;;;4966536;28;20094;-62
2023/03/02 06:34:11;;;;;;;234.82;19.58;;;1.10;99.90;;;;;;4968521;28;20093;-62
2023/03/02 06:36:37;;;;;;;72.38;12.73;;;1.00;99.90;;;;;;4954284;28;20109;-62
2023/03/02 06:39:04;;;;;;;65.63;16.15;;;1.00;99.90;;;;;;4968521;28;20517;-62
2023/03/02 06:41:32;;;;;;;68.45;16.02;;;0.90;99.90;;;;;;4966982;28;20549;-62
2023/03/02 06:43:59;;;;;;;150.88;17.80;;;1.00;99.90;;;;;;4968400;28;20130;-62
2023/03/02 06:46:25;;;;;;;83.65;17.33;;;1.00;99.90;;;;;;4968760;28;20498;-62
2023/03/02 06:48:50;;;;;;;136.65;17.30;;;1.00;99.90;;;;;;4949206;28;20472;-62
2023/03/02 06:51:16;;;;;;;92.43;17.83;;;1.00;99.90;;;;;;4968804;28;20421;-62
2023/03/02 06:53:42;;;;;;;148.32;18.73;;;1.00;99.90;;;;;;4966709;28;20043;-62
2023/03/02 06:56:08;;;;;;;118.68;18.27;;;1.00;99.90;;;;;;4968497;28;20177;-62
2023/03/02 06:58:35;;;;;;;57.08;17.02;;;1.00;99.90;;;;;;4966543;28;20046;-62
2023/03/02 07:01:00;;;;;;;44.03;13.70;;;1.00;99.90;;;;;;4967941;28;20243;-63
2023/03/02 07:03:26;;;;;;;50.60;14.98;;;0.90;99.90;;;;;;4967348;28;20189;-63
2023/03/02 07:05:52;;;;;;;45.53;13.75;;;0.90;99.90;;;;;;4966509;28;20137;-62
2023/03/02 07:08:18;;;;;;;39.53;14.57;;;0.90;99.90;;;;;;4971940;28;20057;-63
2023/03/02 07:10:43;;;;;;;58.08;14.20;;;1.00;99.90;;;;;;4967084;28;20083;-62
2023/03/02 07:13:09;;;;;;;42.25;14.45;;;0.90;99.90;;;;;;4950202;28;20046;-63
2023/03/02 07:15:38;;;;;;;32.63;15.73;;;0.90;99.90;;;;;;4949249;28;20050;-62
2023/03/02 07:18:04;;;;;;;26.00;14.25;;;1.00;99.90;;;;;;4972891;28;20595;-62
2023/03/02 07:20:29;;;;;;;37.67;14.13;;;0.90;99.90;;;;;;4974307;28;20118;-64
2023/03/02 07:22:56;;;;;;;42.20;14.98;;;1.00;99.90;;;;;;4966874;28;20047;-64
2023/03/02 07:25:22;;;;;;;34.45;13.27;;;0.90;99.90;;;;;;4968031;28;20074;-64
2023/03/02 07:27:48;;;;;;;35.58;13.48;;;0.90;99.90;;;;;;4966497;28;20118;-64
2023/03/02 07:30:14;;;;;;;57.80;15.40;;;0.90;99.90;;;;;;4967237;28;20054;-64
2023/03/02 07:32:40;;;;;;;34.83;14.25;;;0.90;99.90;;;;;;4973361;28;20054;-64
2023/03/02 07:35:06;;;;;;;49.72;14.98;;;0.90;99.90;;;;;;4980093;28;20138;-64
2023/03/02 07:37:32;;;;;;;136.00;15.15;;;0.90;99.90;;;;;;4972212;28;20637;-64
2023/03/02 07:39:58;;;;;;;76.15;14.90;;;1.00;99.90;;;;;;4958206;28;20127;-63
2023/03/02 07:42:24;;;;;;;134.93;16.75;;;1.00;99.90;;;;;;4972280;28;20389;-63
2023/03/02 07:44:52;;;;;;;207.60;16.23;;;1.00;99.90;;;;;;4974254;28;20624;-64
2023/03/02 07:47:18;;;;;;;62.55;14.23;;;1.00;99.90;;;;;;4974680;28;20042;-64
2023/03/02 07:49:43;;;;;;;52.15;15.60;;;1.10;99.90;;;;;;4957813;28;20051;-63
2023/03/02 07:52:09;;;;;;;41.20;15.85;;;1.10;99.90;;;;;;4978701;28;20037;-63
2023/03/02 07:54:35;;;;;;;60.03;17.50;;;1.20;99.90;;;;;;4980931;28;20050;-63
2023/03/02 07:57:00;;;;;;;48.40;15.75;;;1.20;99.90;;;;;;4978192;28;20043;-64
2023/03/02 07:59:27;;;;;;;43.85;13.77;;;1.30;99.90;;;;;;4979874;28;20057;-63
2023/03/02 08:01:53;;;;;;;42.40;14.77;;;1.30;99.90;;;;;;4966939;28;20039;-64
2023/03/02 08:04:19;;;;;;;144.57;14.95;;;1.30;99.90;;;;;;4979386;28;20404;-64
2023/03/02 08:06:45;;;;;;;45.35;16.42;;;1.30;99.90;;;;;;4976028;28;20133;-63
2023/03/02 08:09:10;;;;;;;31.58;14.85;;;1.30;99.90;;;;;;4952847;28;20047;-63
2023/03/02 08:11:36;;;;;;;35.78;14.07;;;1.30;99.90;;;;;;4969635;28;20600;-63
2023/03/02 08:14:02;;;;;;;38.97;14.73;;;1.40;99.90;;;;;;4972062;28;20039;-63
2023/03/02 08:16:28;;;;;;;31.02;16.00;;;1.40;99.90;;;;;;4955046;28;20038;-64
2023/03/02 08:18:55;;;;;;;91.15;22.23;;;1.40;99.90;;;;;;4975737;28;20097;-63
2023/03/02 08:21:22;;;;;;;43.10;15.48;;;1.40;99.90;;;;;;4966752;28;20261;-64
2023/03/02 08:23:49;;;;;;;31.77;14.77;;;1.40;99.90;;;;;;4959682;28;20034;-64
2023/03/02 08:26:16;;;;;;;45.67;14.88;;;1.40;99.90;;;;;;4969588;28;20039;-63
2023/03/02 08:28:42;;;;;;;69.97;15.95;;;1.40;99.90;;;;;;4966452;28;20118;-63
2023/03/02 08:31:08;;;;;;;61.05;15.25;;;1.40;99.90;;;;;;4963275;28;20054;-64
2023/03/02 08:33:34;;;;;;;41.75;15.75;;;1.40;99.90;;;;;;4974223;28;20445;-64
2023/03/02 08:36:12;;;;;;;69.85;14.65;;;1.40;99.90;;;;;;4984738;28;20098;-64
2023/03/02 08:38:38;;;;;;;31.48;14.60;;;1.40;99.90;;;;;;4968100;28;20101;-64
2023/03/02 08:41:11;;;;;;;26.63;14.25;;;1.40;99.90;;;;;;4968218;28;20505;-63
2023/03/02 08:43:37;;;;;;;26.60;14.75;;;1.60;99.90;;;;;;4971889;28;20476;-64
2023/03/02 08:46:03;;;;;;;25.15;14.18;;;1.60;99.90;;;;;;4966600;28;20142;-64
2023/03/02 08:48:29;;;;;;;23.45;13.02;;;1.70;99.90;;;;;;4969779;28;20039;-63
2023/03/02 08:51:00;;;;;;;26.88;13.80;;;1.70;99.90;;;;;;4973592;28;20610;-63
2023/03/02 08:53:29;;;;;;;33.38;13.75;;;1.70;99.90;;;;;;4970741;28;20092;-63
2023/03/02 08:55:55;;;;;;;38.95;15.05;;;1.70;99.90;;;;;;4972060;28;20050;-63
2023/03/02 08:58:21;;;;;;;30.08;13.48;;;1.70;99.90;;;;;;4971805;28;20505;-64
2023/03/02 09:00:46;;;;;;;19.92;12.68;;;1.70;99.90;;;;;;4974828;28;20050;-63
2023/03/02 09:03:12;;;;;;;26.52;14.43;;;1.80;99.90;;;;;;4965708;28;20058;-63
2023/03/02 09:05:38;;;;;;;34.47;12.93;;;1.90;99.90;;;;;;4969852;28;20058;-63
2023/03/02 09:08:04;;;;;;;37.47;12.90;;;2.00;99.90;;;;;;4968074;28;20101;-63
2023/03/02 09:10:30;;;;;;;40.00;13.45;;;2.00;99.90;;;;;;4971324;28;20031;-63
2023/03/02 09:12:56;;;;;;;40.50;13.32;;;1.90;99.90;;;;;;4971439;28;20148;-63
2023/03/02 09:15:21;;;;;;;26.15;13.65;;;1.80;99.90;;;;;;4967693;28;20382;-63
2023/03/02 09:17:47;;;;;;;30.98;14.15;;;1.90;99.90;;;;;;4973959;28;20100;-63
2023/03/02 09:20:13;;;;;;;19.73;13.32;;;1.80;99.90;;;;;;4971171;28;20042;-63
2023/03/02 09:22:39;;;;;;;20.73;12.55;;;1.70;99.90;;;;;;4972803;28;20062;-63
2023/03/02 09:25:05;;;;;;;21.75;11.68;;;1.70;99.90;;;;;;4968373;28;20034;-63
2023/03/02 09:27:31;;;;;;;18.25;11.70;;;1.80;99.90;;;;;;4975864;28;20383;-63
2023/03/02 09:29:57;;;;;;;18.25;12.02;;;1.80;99.90;;;;;;4968311;28;20039;-63
2023/03/02 09:32:23;;;;;;;19.85;12.43;;;1.90;99.90;;;;;;4969240;28;20050;-63
2023/03/02 09:34:49;;;;;;;48.95;11.65;;;2.00;99.90;;;;;;4971080;28;20051;-63
2023/03/02 09:37:15;;;;;;;16.67;11.57;;;2.00;99.90;;;;;;4977566;28;20049;-63
2023/03/02 09:39:41;;;;;;;23.25;12.13;;;1.90;99.90;;;;;;4966979;28;20035;-63
2023/03/02 09:42:16;;;;;;;18.23;11.40;;;1.90;99.90;;;;;;4984257;28;20074;-63
2023/03/02 09:45:02;;;;;;;17.42;10.07;;;1.90;99.90;;;;;;4984309;28;20109;-63
2023/03/02 09:47:57;;;;;;;27.55;11.52;;;2.00;99.90;;;;;;4985504;28;20046;-63
2023/03/02 09:50:34;;;;;;;14.82;10.27;;;2.00;99.90;;;;;;4972730;28;20046;-63
2023/03/02 09:53:18;;;;;;;15.60;10.85;;;2.00;99.90;;;;;;4983475;28;20074;-63
2023/03/02 09:55:49;;;;;;;21.55;12.75;;;2.10;99.90;;;;;;4984033;28;20085;-63
2023/03/02 09:58:19;;;;;;;25.23;12.48;;;2.10;99.90;;;;;;4979332;28;20409;-63
2023/03/02 10:00:46;;;;;;;19.70;12.17;;;2.10;99.90;;;;;;4984433;28;20061;-63
2023/03/02 10:03:26;;;;;;;16.55;11.68;;;2.30;99.90;;;;;;4980347;28;20129;-63
2023/03/02 10:05:53;;;;;;;;;;;2.30;99.90;;;;;;4971258;28;20046;-63
2023/03/02 10:08:22;;;;;;;18.55;12.25;;;2.50;99.90;;;;;;4972997;28;20345;-63
2023/03/02 10:11:03;;;;;;;19.20;12.48;;;2.60;99.90;;;;;;4970130;28;20058;-63
2023/03/02 10:13:31;;;;;;;;;;;2.80;99.90;;;;;;4968229;28;20046;-63
2023/03/02 10:15:57;;;;;;;17.15;11.48;;;2.80;99.90;;;;;;4967365;28;19932;-63
2023/03/02 10:18:36;;;;;;;21.92;13.80;;;2.80;99.90;;;;;;4968725;28;20046;-63
2023/03/02 10:21:22;;;;;;;18.25;12.77;;;2.70;99.90;;;;;;4967951;28;20066;-63
2023/03/02 10:23:57;;;;;;;19.45;12.88;;;2.70;99.90;;;;;;4968289;28;20043;-63
2023/03/02 10:26:23;;;;;;;20.05;13.07;;;2.50;99.90;;;;;;4967205;28;20575;-63
2023/03/02 10:28:58;;;;;;;17.70;12.15;;;2.60;99.90;;;;;;4967057;28;20043;-63
2023/03/02 10:31:30;;;;;;;18.95;12.93;;;2.70;99.90;;;;;;4968401;28;20046;-63
2023/03/02 10:33:56;;;;;;;21.52;13.25;;;2.80;99.90;;;;;;4967559;28;20062;-63
2023/03/02 10:36:30;;;;;;;20.13;12.50;;;3.00;99.90;;;;;;4967849;28;20047;-64
2023/03/02 10:38:59;;;;;;;15.27;10.55;;;3.10;99.90;;;;;;4975754;28;20488;-64
2023/03/02 10:41:43;;;;;;;16.77;12.02;;;3.20;99.90;;;;;;4981216;28;20121;-63
2023/03/02 10:44:15;;;;;;;17.33;11.13;;;3.20;99.90;;;;;;4972170;28;20057;-64
2023/03/02 10:46:43;;;;;;;15.93;11.48;;;3.20;99.90;;;;;;4976098;28;20062;-63
2023/03/02 10:49:32;;;;;;;19.70;12.20;;;3.20;99.90;;;;;;4971149;28;20050;-64
2023/03/02 10:52:01;;;;;;;15.63;11.30;;;3.40;99.90;;;;;;4978834;28;20050;-63
2023/03/02 10:54:29;;;;;;;19.50;9.95;;;3.30;99.90;;;;;;4966909;28;20035;-63
2023/03/02 10:57:01;;;;;;;14.57;10.45;;;3.20;99.90;;;;;;4959340;28;20485;-63
2023/03/02 10:59:29;;;;;;;15.23;10.88;;;3.30;99.90;;;;;;4971269;28;20485;-63
2023/03/02 11:02:03;;;;;;;16.25;12.10;;;3.30;99.90;;;;;;4974546;28;20050;-63
2023/03/02 11:04:30;;;;;;;14.77;11.20;;;3.40;99.90;;;;;;4977137;28;20134;-64
2023/03/02 11:07:13;;;;;;;13.65;10.32;;;3.50;99.90;;;;;;4980157;28;20046;-63
2023/03/02 11:09:39;;;;;;;16.95;10.73;;;3.70;99.90;;;;;;4972685;28;20105;-63
2023/03/02 11:12:13;;;;;;;12.98;9.45;;;4.00;99.90;;;;;;4966321;28;20579;-64
2023/03/02 11:14:39;;;;;;;24.88;10.20;;;4.20;99.90;;;;;;4972854;28;20058;-63
2023/03/02 11:17:36;;;;;;;12.23;9.30;;;4.20;99.90;;;;;;4965337;28;20051;-63
2023/03/02 11:20:03;;;;;;;11.15;8.48;;;4.30;99.90;;;;;;4967290;28;20417;-63
2023/03/02 11:22:46;;;;;;;12.48;9.57;;;4.40;99.90;;;;;;4976399;28;20375;-63
2023/03/02 11:25:24;;;;;;;12.43;9.73;;;4.70;99.90;;;;;;4965846;28;20043;-63
2023/03/02 11:27:54;;;;;;;12.10;9.50;;;4.90;99.90;;;;;;4965964;28;20315;-63
2023/03/02 11:30:22;;;;;;;16.25;9.52;;;4.90;99.90;;;;;;4965558;28;20054;-63
2023/03/02 11:33:01;;;;;;;11.20;9.30;;;4.90;99.90;;;;;;4966685;28;20059;-63
2023/03/02 11:35:49;;;;;;;13.13;10.05;;;4.80;99.90;;;;;;4967273;28;20058;-63
2023/03/02 11:38:27;;;;;;;15.70;10.20;;;4.90;99.90;;;;;;4966266;28;20508;-63
2023/03/02 11:40:57;;;;;;;13.45;9.43;;;5.00;99.90;;;;;;4967728;28;20082;-63
2023/03/02 11:43:23;;;;;;;13.88;10.25;;;5.00;99.90;;;;;;4968325;28;20110;-63
2023/03/02 11:46:04;;;;;;;13.57;10.13;;;5.00;99.90;;;;;;4974277;28;20576;-63
2023/03/02 11:48:41;;;;;;;18.70;10.00;;;5.10;99.90;;;;;;4978316;28;20368;-63
2023/03/02 11:51:13;;;;;;;14.23;10.70;;;5.20;99.90;;;;;;4970763;28;20105;-63
2023/03/02 11:53:58;;;;;;;16.08;12.02;;;5.20;99.90;;;;;;4970388;28;20034;-64
2023/03/02 11:56:25;;;;;;;12.07;9.07;;;5.10;99.20;;;;;;4969441;28;20051;-62
2023/03/02 11:58:58;;;;;;;12.25;10.07;;;5.00;99.30;;;;;;4967199;28;20050;-62
2023/03/02 12:01:26;;;;;;;13.80;10.57;;;5.00;99.90;;;;;;4967934;28;20042;-62
2023/03/02 12:03:53;;;;;;;14.15;10.98;;;5.00;99.90;;;;;;4969768;28;20038;-62
2023/03/02 12:06:21;;;;;;;12.18;10.65;;;5.10;99.90;;;;;;4971929;28;20158;-62
2023/03/02 12:08:49;;;;;;;14.02;10.52;;;5.00;99.90;;;;;;4973460;28;20042;-62
2023/03/02 12:11:18;;;;;;;15.27;10.55;;;4.90;99.90;;;;;;4960798;28;20061;-62
2023/03/02 12:13:56;;;;;;;12.95;9.73;;;5.00;99.90;;;;;;4970169;28;20733;-62
2023/03/02 12:16:37;;;;;;;13.32;9.82;;;5.00;99.90;;;;;;4951811;28;20035;-61
2023/03/02 12:19:27;;;;;;;11.73;8.63;;;5.20;99.90;;;;;;4971367;28;20105;-62
2023/03/02 12:21:57;;;;;;;;;;;5.00;99.90;;;;;;4960392;28;20059;-63
2023/03/02 12:24:27;;;;;;;11.27;9.20;;;5.10;99.90;;;;;;4973603;28;20042;-64
2023/03/02 12:27:19;;;;;;;11.43;9.13;;;5.30;99.90;;;;;;4977462;28;20124;-63
2023/03/02 12:29:49;;;;;;;9.30;7.70;;;5.50;99.90;;;;;;4977921;28;20059;-64
2023/03/02 12:32:17;;;;;;;10.77;8.88;;;5.70;99.90;;;;;;4983691;28;20061;-63
2023/03/02 12:35:12;;;;;;;9.65;8.20;;;5.70;99.90;;;;;;4956969;28;20403;-63
2023/03/02 12:37:50;;;;;;;9.65;7.88;;;5.90;99.90;;;;;;4975999;28;20100;-63
2023/03/02 12:40:50;;;;;;;10.18;8.60;;;6.10;98.40;;;;;;4973264;28;20486;-63
2023/03/02 12:43:26;;;;;;;9.17;7.97;;;6.30;99.00;;;;;;4976837;28;20493;-63
2023/03/02 12:46:11;;;;;;;10.02;8.43;;;6.50;95.50;;;;;;4966036;28;20775;-63
2023/03/02 12:49:01;;;;;;;11.60;7.90;;;6.50;96.20;;;;;;4975859;28;20046;-63